Time;durP1;ratioP1;P1;durP2;ratioP2;P2;SDS_P1;SDS_P2;PMS_P1;PMS_P2;Temp;Humidity;BMP_temperature;BMP_pressure;BME280_temperature;BME280_humidity;BME280_pressure;Samples;Min_cycle;Max_cycle;Signal;HPM_P1;HPM_P2
2023/06/30 00:01:59;;;;;;;6.88;1.60;;;;;;;25.08;40.90;101614.94;5052309;28;20043;-73
2023/06/30 00:04:27;;;;;;;4.80;1.58;;;;;;;25.18;40.24;101605.44;5074932;28;20051;-73
2023/06/30 00:06:56;;;;;;;3.80;1.77;;;;;;;25.11;41.05;101608.56;5082374;28;20028;-73
2023/06/30 00:09:23;;;;;;;4.00;1.60;;;;;;;25.18;40.18;101610.78;5086419;28;20016;-73
2023/06/30 00:11:50;;;;;;;4.30;1.83;;;;;;;25.15;40.75;101615.44;5058249;28;20135;-73
2023/06/30 00:14:16;;;;;;;4.00;1.80;;;;;;;24.75;41.10;101605.28;5081087;28;20089;-73
2023/06/30 00:16:41;;;;;;;4.63;1.73;;;;;;;25.13;40.04;101606.63;5060199;28;20024;-73
2023/06/30 00:19:08;;;;;;;3.80;1.40;;;;;;;24.86;41.36;101594.81;5052535;28;20115;-73
2023/06/30 00:21:33;;;;;;;5.03;1.52;;;;;;;25.09;40.89;101603.31;5052021;28;20032;-73
2023/06/30 00:24:01;;;;;;;5.72;1.63;;;;;;;24.73;41.56;101604.50;5058306;28;20032;-73
2023/06/30 00:26:28;;;;;;;4.65;1.75;;;;;;;24.84;41.26;101595.84;5063749;28;20488;-73
2023/06/30 00:28:54;;;;;;;3.80;1.25;;;;;;;25.30;40.46;101597.63;5058013;28;20024;-73
2023/06/30 00:31:20;;;;;;;9.35;1.52;;;;;;;25.07;41.05;101597.16;5055898;28;20027;-72
2023/06/30 00:33:45;;;;;;;1.85;1.20;;;;;;;25.06;40.11;101600.81;5064419;28;20042;-72
2023/06/30 00:36:11;;;;;;;5.00;1.75;;;;;;;25.14;40.18;101587.84;5074868;28;20028;-73
2023/06/30 00:38:36;;;;;;;5.75;1.85;;;;;;;25.14;40.10;101593.19;5053919;28;20119;-72
2023/06/30 00:41:02;;;;;;;5.50;1.52;;;;;;;24.94;40.42;101585.50;5055796;28;20028;-73
2023/06/30 00:43:27;;;;;;;4.65;1.67;;;;;;;25.19;39.84;101590.22;5054007;28;20484;-73
2023/06/30 00:45:52;;;;;;;3.78;1.30;;;;;;;24.95;40.75;101579.16;5072125;28;20071;-72
2023/06/30 00:48:19;;;;;;;4.80;1.60;;;;;;;25.19;39.74;101574.19;5078754;28;20016;-73
2023/06/30 00:50:44;;;;;;;4.15;1.30;;;;;;;25.14;40.21;101586.97;5068707;28;20023;-73
2023/06/30 00:53:12;;;;;;;6.05;1.73;;;;;;;24.79;40.62;101580.09;5054606;28;20405;-73
2023/06/30 00:55:38;;;;;;;2.95;1.58;;;;;;;24.82;40.89;101579.03;5059578;28;20533;-73
2023/06/30 00:58:03;;;;;;;3.78;1.38;;;;;;;24.61;41.01;101586.47;5067208;28;20127;-72
2023/06/30 01:00:29;;;;;;;2.10;1.35;;;;;;;24.79;40.65;101582.75;5038088;28;20025;-73
2023/06/30 01:03:25;;;;;;;4.30;1.58;;;;;;;24.89;40.10;101586.63;5061695;28;20024;-73
2023/06/30 01:05:56;;;;;;;3.95;1.92;;;;;;;24.71;40.85;101580.50;5024584;28;20037;-73
2023/06/30 01:08:31;;;;;;;3.20;1.50;;;;;;;24.52;40.77;101590.53;5046029;28;20460;-72
2023/06/30 01:10:58;;;;;;;8.55;1.50;;;;;;;24.79;40.40;101588.09;5051745;28;20034;-72
2023/06/30 01:13:24;;;;;;;3.35;1.35;;;;;;;24.62;40.73;101593.56;5037802;28;20115;-73
2023/06/30 01:15:52;;;;;;;3.75;1.40;;;;;;;24.44;39.99;101587.41;5054173;28;20078;-73
2023/06/30 01:18:20;;;;;;;4.28;1.50;;;;;;;24.21;41.06;101585.09;5043748;28;20054;-73
2023/06/30 01:20:47;;;;;;;4.22;1.63;;;;;;;24.58;40.48;101594.66;5053442;28;20037;-73
2023/06/30 01:23:26;;;;;;;2.78;1.60;;;;;;;24.43;41.19;101588.34;5069137;28;20020;-73
2023/06/30 01:25:52;;;;;;;3.40;1.58;;;;;;;24.61;39.99;101583.81;5050188;28;20029;-73
2023/06/30 01:28:18;;;;;;;4.60;1.40;;;;;;;24.78;40.13;101583.69;5043072;28;20423;-73
2023/06/30 01:30:43;;;;;;;4.57;1.50;;;;;;;24.54;40.12;101593.97;5057886;28;20020;-72
2023/06/30 01:33:10;;;;;;;3.35;1.40;;;;;;;24.28;40.66;101587.44;5051351;28;20463;-73
2023/06/30 01:35:36;;;;;;;4.05;1.80;;;;;;;24.32;40.26;101572.97;5054449;28;20066;-73
2023/06/30 01:38:02;;;;;;;4.00;2.05;;;;;;;24.10;41.68;101584.84;5050907;28;20559;-72
2023/06/30 01:40:28;;;;;;;3.83;1.35;;;;;;;24.17;41.07;101575.53;5053068;28;20021;-73
2023/06/30 01:42:55;;;;;;;3.47;1.75;;;;;;;24.30;40.43;101577.53;5054022;28;20097;-73
2023/06/30 01:45:23;;;;;;;4.60;1.58;;;;;;;24.27;40.60;101586.56;5036512;28;20029;-73
2023/06/30 01:47:50;;;;;;;3.90;1.38;;;;;;;23.88;41.43;101585.16;5034212;28;20445;-73
2023/06/30 01:50:16;;;;;;;3.63;1.98;;;;;;;24.01;41.54;101588.00;5051157;28;20040;-73
2023/06/30 01:52:41;;;;;;;2.42;1.38;;;;;;;24.03;41.78;101578.13;5050517;28;20028;-73
2023/06/30 01:55:07;;;;;;;5.43;2.22;;;;;;;23.91;42.03;101584.13;5053605;28;20087;-73
2023/06/30 01:57:33;;;;;;;7.95;1.92;;;;;;;23.76;42.19;101575.97;5034976;28;20128;-73
2023/06/30 01:59:58;;;;;;;4.63;1.52;;;;;;;24.18;40.63;101571.94;5041460;28;20071;-73
2023/06/30 02:02:23;;;;;;;4.82;1.48;;;;;;;23.78;42.03;101574.09;5047783;28;20540;-73
2023/06/30 02:04:49;;;;;;;4.28;1.60;;;;;;;24.21;41.25;101561.06;5055540;28;20456;-73
2023/06/30 02:07:15;;;;;;;6.32;1.90;;;;;;;24.19;40.66;101568.31;5054315;28;20020;-73
2023/06/30 02:09:40;;;;;;;6.13;2.33;;;;;;;24.17;41.35;101567.53;5034329;28;20473;-73
2023/06/30 02:12:06;;;;;;;6.28;3.13;;;;;;;24.19;41.33;101565.66;5034306;28;20036;-73
2023/06/30 02:14:31;;;;;;;4.55;1.63;;;;;;;23.91;41.89;101562.78;5034781;28;20106;-73
2023/06/30 02:16:57;;;;;;;2.65;1.42;;;;;;;24.27;41.22;101570.53;5053512;28;20469;-72
2023/06/30 02:19:23;;;;;;;7.35;2.42;;;;;;;23.88;42.11;101567.31;5070710;28;20471;-73
2023/06/30 02:21:50;;;;;;;3.40;1.92;;;;;;;24.02;41.83;101571.06;5064319;28;20408;-73
2023/06/30 02:24:16;;;;;;;8.60;2.33;;;;;;;24.12;40.89;101561.56;5043419;28;20020;-73
2023/06/30 02:26:42;;;;;;;4.05;1.98;;;;;;;24.27;41.58;101553.66;5052394;28;20025;-73
2023/06/30 02:29:07;;;;;;;1.98;1.42;;;;;;;24.35;41.02;101560.28;5034357;28;20024;-72
2023/06/30 02:31:32;;;;;;;5.57;2.20;;;;;;;24.29;40.52;101562.44;5034948;28;20512;-73
2023/06/30 02:33:58;;;;;;;3.42;1.60;;;;;;;24.22;40.82;101552.13;5050234;28;20503;-73
2023/06/30 02:36:23;;;;;;;5.88;1.58;;;;;;;24.22;41.31;101562.78;5046574;28;20033;-73
2023/06/30 02:38:49;;;;;;;2.63;1.60;;;;;;;24.31;40.83;101557.88;5052988;28;20036;-73
2023/06/30 02:41:14;;;;;;;6.45;1.80;;;;;;;24.57;40.15;101561.72;5070460;28;20099;-73
2023/06/30 02:43:39;;;;;;;2.08;1.70;;;;;;;24.31;40.82;101563.22;5049382;28;20618;-73
2023/06/30 02:46:05;;;;;;;3.50;1.85;;;;;;;24.29;41.15;101562.44;5053696;28;20135;-72
2023/06/30 02:48:30;;;;;;;2.45;1.60;;;;;;;24.11;41.64;101565.22;5034219;28;20100;-73
2023/06/30 02:50:55;;;;;;;2.55;1.70;;;;;;;23.57;42.34;101565.41;5034145;28;20036;-72
2023/06/30 02:53:21;;;;;;;3.92;1.98;;;;;;;24.15;41.78;101565.88;5039607;28;20024;-73
2023/06/30 02:55:46;;;;;;;2.97;1.85;;;;;;;24.01;41.82;101569.31;5054471;28;20072;-73
2023/06/30 02:58:12;;;;;;;3.67;1.40;;;;;;;24.26;40.97;101562.63;5063843;28;20032;-72
2023/06/30 03:00:39;;;;;;;3.45;1.50;;;;;;;24.16;41.19;101560.44;5089904;28;20044;-73
2023/06/30 03:03:05;;;;;;;2.67;1.70;;;;;;;24.15;41.30;101560.53;5063273;28;20438;-73
2023/06/30 03:05:30;;;;;;;3.88;1.90;;;;;;;23.97;41.45;101567.78;5074449;28;20020;-72
2023/06/30 03:07:56;;;;;;;1.73;1.40;;;;;;;24.21;40.79;101561.06;5053417;28;20029;-73
2023/06/30 03:10:21;;;;;;;4.53;1.77;;;;;;;24.09;41.39;101571.59;5072634;28;20020;-72
2023/06/30 03:12:47;;;;;;;4.85;1.63;;;;;;;24.12;41.45;101561.56;5064801;28;20017;-73
2023/06/30 03:15:12;;;;;;;10.70;2.17;;;;;;;24.12;41.72;101561.56;5051815;28;20020;-73
2023/06/30 03:17:37;;;;;;;4.28;1.70;;;;;;;24.17;41.03;101554.16;5080115;28;20020;-73
2023/06/30 03:20:10;;;;;;;2.92;1.73;;;;;;;24.05;41.25;101555.72;5090827;28;20027;-73
2023/06/30 03:22:36;;;;;;;;;;;;;;;24.13;41.48;101557.97;5065526;28;20396;-72
2023/06/30 03:25:01;;;;;;;3.45;1.40;;;;;;;24.08;41.48;101554.69;5055379;28;19920;-73
2023/06/30 03:27:26;;;;;;;5.63;1.63;;;;;;;24.30;40.26;101556.16;5057668;28;20387;-73
2023/06/30 03:29:52;;;;;;;2.33;1.42;;;;;;;24.49;40.58;101554.16;5070801;28;20488;-73
2023/06/30 03:32:18;;;;;;;2.70;2.45;;;;;;;24.10;41.27;101552.81;5056239;28;20032;-73
2023/06/30 03:34:43;;;;;;;5.22;1.70;;;;;;;24.03;41.03;101568.28;5063571;28;20052;-73
2023/06/30 03:37:09;;;;;;;3.55;1.70;;;;;;;24.20;40.84;101563.81;5065683;28;20105;-73
2023/06/30 03:39:37;;;;;;;2.22;1.40;;;;;;;24.09;40.98;101567.09;5051825;28;20051;-73
2023/06/30 03:42:02;;;;;;;4.97;1.50;;;;;;;23.84;41.91;101563.06;5064101;28;20034;-72
2023/06/30 03:44:28;;;;;;;9.90;2.00;;;;;;;23.76;41.82;101569.78;5069809;28;20032;-73
2023/06/30 03:46:53;;;;;;;4.85;1.67;;;;;;;23.97;41.41;101562.44;5052031;28;20033;-73
2023/06/30 03:49:19;;;;;;;10.68;2.03;;;;;;;24.10;41.24;101558.13;5070221;28;20099;-73
2023/06/30 03:51:44;;;;;;;3.63;1.63;;;;;;;23.93;41.68;101560.88;5073562;28;20082;-73
2023/06/30 03:54:10;;;;;;;1.60;1.50;;;;;;;24.01;41.82;101558.66;5059371;28;20017;-73
2023/06/30 03:56:35;;;;;;;5.70;1.80;;;;;;;24.03;42.07;101562.97;5078680;28;20488;-73
2023/06/30 03:59:01;;;;;;;3.58;1.67;;;;;;;24.29;40.82;101557.97;5082059;28;20496;-73
2023/06/30 04:01:26;;;;;;;4.75;1.88;;;;;;;24.07;41.96;101566.31;5056859;28;20476;-73
2023/06/30 04:03:52;;;;;;;4.07;1.63;;;;;;;23.80;42.15;101566.84;5057514;28;20458;-73
2023/06/30 04:06:17;;;;;;;2.15;1.67;;;;;;;24.15;41.95;101561.41;5063786;28;20028;-73
2023/06/30 04:08:44;;;;;;;4.68;1.80;;;;;;;24.46;40.79;101556.16;5072426;28;20039;-73
2023/06/30 04:11:09;;;;;;;2.05;1.30;;;;;;;24.32;41.11;101551.59;5094480;28;20019;-73
2023/06/30 04:13:35;;;;;;;2.63;1.35;;;;;;;24.30;41.27;101558.81;5057053;28;20030;-73
2023/06/30 04:16:00;;;;;;;7.45;1.40;;;;;;;24.46;40.99;101559.66;5054880;28;20101;-73
2023/06/30 04:18:27;;;;;;;4.55;1.88;;;;;;;24.68;40.62;101553.97;5070999;28;20024;-72
2023/06/30 04:20:52;;;;;;;4.90;2.10;;;;;;;24.40;41.59;101552.03;5092843;28;20032;-73
2023/06/30 04:23:18;;;;;;;3.47;1.80;;;;;;;24.37;41.62;101544.16;5074824;28;20494;-73
2023/06/30 04:25:43;;;;;;;7.68;1.77;;;;;;;24.41;41.76;101545.72;5076375;28;20021;-73
2023/06/30 04:28:09;;;;;;;3.85;1.73;;;;;;;24.30;41.98;101553.47;5076162;28;20498;-73
2023/06/30 04:30:37;;;;;;;4.93;1.90;;;;;;;24.65;40.95;101553.31;5075955;28;20019;-72
2023/06/30 04:33:02;;;;;;;3.97;1.70;;;;;;;24.78;40.92;101548.94;5070795;28;20024;-73
2023/06/30 04:35:28;;;;;;;2.65;2.00;;;;;;;24.51;41.28;101552.25;5062253;28;20024;-72
2023/06/30 04:37:53;;;;;;;3.65;1.42;;;;;;;24.41;42.12;101556.41;5062012;28;20765;-73
2023/06/30 04:40:19;;;;;;;5.13;1.90;;;;;;;24.13;42.58;101549.94;5073005;28;20029;-73
2023/06/30 04:42:44;;;;;;;3.67;1.65;;;;;;;24.65;41.56;101547.97;5078478;28;20111;-73
2023/06/30 04:45:10;;;;;;;6.93;1.80;;;;;;;24.61;41.73;101546.41;5059355;28;20535;-73
2023/06/30 04:47:36;;;;;;;5.05;1.52;;;;;;;24.98;41.17;101554.94;5077508;28;20035;-73
2023/06/30 04:50:01;;;;;;;6.68;1.52;;;;;;;25.53;40.69;101556.97;5088193;28;20116;-73
2023/06/30 04:52:27;;;;;;;4.07;1.40;;;;;;;25.54;40.75;101553.34;5081786;28;20097;-73
2023/06/30 04:54:52;;;;;;;5.80;1.48;;;;;;;26.11;39.46;101550.75;5071467;28;20055;-73
2023/06/30 04:57:17;;;;;;;3.88;1.40;;;;;;;27.49;38.39;101550.47;5072526;28;20057;-73
2023/06/30 04:59:43;;;;;;;5.07;1.70;;;;;;;28.45;36.31;101555.19;5064464;28;20507;-74
2023/06/30 05:02:08;;;;;;;4.43;1.15;;;;;;;28.98;34.93;101551.28;5085049;28;20020;-73
2023/06/30 05:04:36;;;;;;;2.80;1.05;;;;;;;30.05;33.86;101546.50;5074216;28;20498;-73
2023/06/30 05:07:02;;;;;;;3.65;1.60;;;;;;;30.43;31.96;101550.53;5072619;28;20028;-73
2023/06/30 05:09:27;;;;;;;4.68;1.30;;;;;;;30.07;32.33;101547.19;5057617;28;20081;-73
2023/06/30 05:11:53;;;;;;;3.50;0.98;;;;;;;31.15;30.87;101540.91;5059728;28;20461;-72
2023/06/30 05:14:18;;;;;;;2.60;1.10;;;;;;;30.78;31.71;101550.28;5055671;28;20343;-73
2023/06/30 05:16:43;;;;;;;1.60;0.90;;;;;;;31.06;31.04;101547.09;5074504;28;20029;-73
2023/06/30 05:19:09;;;;;;;5.45;1.58;;;;;;;30.22;31.66;101548.63;5069744;28;20021;-73
2023/06/30 05:21:34;;;;;;;1.70;0.90;;;;;;;30.63;31.34;101551.59;5071978;28;20051;-73
2023/06/30 05:24:00;;;;;;;7.00;1.50;;;;;;;29.23;34.17;101556.47;5062045;28;20040;-73
2023/06/30 05:26:25;;;;;;;8.27;1.73;;;;;;;29.66;33.57;101548.69;5069582;28;20073;-73
2023/06/30 05:28:51;;;;;;;1.80;1.25;;;;;;;28.99;34.52;101552.97;5064518;28;20027;-71
2023/06/30 05:31:16;;;;;;;4.70;1.30;;;;;;;27.61;37.01;101546.06;5057679;28;20381;-73
2023/06/30 05:33:41;;;;;;;3.15;1.42;;;;;;;27.74;36.91;101554.97;5071749;28;20028;-73
2023/06/30 05:36:07;;;;;;;4.60;1.30;;;;;;;27.36;37.94;101550.47;5077951;28;20067;-73
2023/06/30 05:38:32;;;;;;;4.72;1.70;;;;;;;27.70;37.02;101538.22;5081350;28;20435;-73
2023/06/30 05:40:58;;;;;;;4.18;1.20;;;;;;;26.90;38.58;101544.63;5054531;28;20444;-73
2023/06/30 05:43:24;;;;;;;2.92;1.15;;;;;;;26.99;38.27;101543.13;5064235;28;20031;-73
2023/06/30 05:45:50;;;;;;;2.10;1.48;;;;;;;26.36;39.80;101550.00;5053305;28;20028;-73
2023/06/30 05:48:15;;;;;;;2.55;1.52;;;;;;;26.84;39.10;101555.75;5071592;28;20426;-73
2023/06/30 05:50:41;;;;;;;10.68;1.50;;;;;;;25.88;40.69;101556.59;5053632;28;20033;-73
2023/06/30 05:53:06;;;;;;;5.03;1.52;;;;;;;25.99;40.10;101549.66;5053469;28;20119;-72
2023/06/30 05:55:31;;;;;;;1.95;1.20;;;;;;;23.42;44.98;101553.75;5060983;28;20028;-73
2023/06/30 05:57:57;;;;;;;3.67;1.27;;;;;;;24.96;42.62;101562.19;5053538;28;20031;-74
2023/06/30 06:00:24;;;;;;;3.42;1.88;;;;;;;25.30;41.47;101549.47;5052397;28;20101;-73
2023/06/30 06:02:50;;;;;;;2.03;1.40;;;;;;;24.98;41.85;101550.44;5071889;28;20020;-72
2023/06/30 06:05:15;;;;;;;6.57;1.45;;;;;;;26.44;39.29;101544.97;5055119;28;20391;-72
2023/06/30 06:07:41;;;;;;;3.28;1.20;;;;;;;24.68;41.90;101555.78;5072907;28;20127;-72
2023/06/30 06:10:07;;;;;;;2.28;1.38;;;;;;;25.20;41.59;101555.38;5091978;28;20069;-72
2023/06/30 06:12:32;;;;;;;3.97;1.10;;;;;;;25.12;41.89;101546.94;5091819;28;20103;-73
2023/06/30 06:14:58;;;;;;;2.53;1.23;;;;;;;26.51;39.25;101542.75;5070435;28;20038;-72
2023/06/30 06:17:23;;;;;;;2.47;1.10;;;;;;;26.47;39.08;101547.44;5076459;28;20067;-71
2023/06/30 06:19:51;;;;;;;5.53;1.70;;;;;;;27.29;37.75;101550.00;5072306;28;20403;-72
2023/06/30 06:22:17;;;;;;;4.45;1.42;;;;;;;29.90;32.87;101541.34;5058161;28;20038;-73
2023/06/30 06:24:42;;;;;;;4.85;1.52;;;;;;;31.28;31.13;101541.56;5059631;28;20614;-72
2023/06/30 06:27:07;;;;;;;2.88;1.05;;;;;;;31.12;31.17;101546.59;5056790;28;20043;-73
2023/06/30 06:29:33;;;;;;;1.83;1.30;;;;;;;32.10;29.05;101541.59;5053602;28;20020;-71
2023/06/30 06:31:58;;;;;;;1.52;1.00;;;;;;;32.74;28.66;101548.38;5067468;28;20447;-71
2023/06/30 06:34:24;;;;;;;3.15;1.05;;;;;;;33.22;28.25;101552.00;5062256;28;20032;-72
2023/06/30 06:36:49;;;;;;;3.85;1.20;;;;;;;32.93;27.50;101552.91;5070205;28;20028;-71
2023/06/30 06:39:15;;;;;;;4.05;1.00;;;;;;;33.11;26.78;101550.31;5063170;28;20392;-71
2023/06/30 06:41:40;;;;;;;2.40;0.93;;;;;;;31.99;28.51;101555.22;5067784;28;20024;-71
2023/06/30 06:44:05;;;;;;;3.17;0.90;;;;;;;32.47;27.49;101549.06;5074340;28;20020;-71
2023/06/30 06:46:31;;;;;;;2.38;1.00;;;;;;;33.85;26.70;101555.06;5076437;28;20097;-71
2023/06/30 06:48:56;;;;;;;3.20;1.25;;;;;;;33.73;26.34;101551.66;5070084;28;20028;-72
2023/06/30 06:51:22;;;;;;;3.75;0.90;;;;;;;32.11;28.33;101554.97;5071017;28;20028;-72
2023/06/30 06:53:48;;;;;;;1.15;0.90;;;;;;;30.49;30.61;101555.47;5072823;28;20040;-71
2023/06/30 06:56:13;;;;;;;4.72;1.13;;;;;;;34.18;26.57;101545.41;5087880;28;20499;-71
2023/06/30 06:58:39;;;;;;;1.77;0.85;;;;;;;34.88;25.46;101552.03;5083890;28;20024;-72
2023/06/30 07:01:05;;;;;;;3.20;1.38;;;;;;;35.00;25.44;101546.19;5056700;28;20055;-71
2023/06/30 07:03:30;;;;;;;3.55;1.10;;;;;;;34.57;24.60;101545.16;5058505;28;20128;-72
2023/06/30 07:05:57;;;;;;;3.30;0.80;;;;;;;33.87;25.35;101537.66;5062932;28;20054;-71
2023/06/30 07:08:24;;;;;;;4.18;0.95;;;;;;;36.32;22.71;101546.78;5085564;28;20070;-72
2023/06/30 07:10:50;;;;;;;2.60;0.93;;;;;;;36.16;22.39;101547.59;5062691;28;20056;-71
2023/06/30 07:13:17;;;;;;;1.85;0.70;;;;;;;35.12;22.66;101548.66;5053406;28;20487;-72
2023/06/30 07:15:44;;;;;;;5.90;0.98;;;;;;;36.58;23.01;101551.25;5051758;28;20132;-72
2023/06/30 07:18:10;;;;;;;1.98;0.70;;;;;;;34.65;23.06;101556.09;5052164;28;20098;-72
2023/06/30 07:20:36;;;;;;;2.83;0.90;;;;;;;34.48;22.76;101552.34;5077259;28;20464;-72
2023/06/30 07:23:01;;;;;;;2.92;0.82;;;;;;;36.67;21.15;101539.34;5066775;28;20156;-72
2023/06/30 07:25:27;;;;;;;1.20;0.68;;;;;;;35.82;19.93;101539.53;5070982;28;20029;-72
2023/06/30 07:27:55;;;;;;;1.02;0.55;;;;;;;36.00;21.60;101547.56;5055696;28;20031;-71
2023/06/30 07:30:24;;;;;;;1.65;0.75;;;;;;;35.65;21.27;101544.00;5053736;28;20423;-72
2023/06/30 07:32:49;;;;;;;2.78;1.23;;;;;;;34.59;21.81;101548.56;5087067;28;20060;-73
2023/06/30 07:35:16;;;;;;;2.05;0.50;;;;;;;35.85;21.69;101547.34;5064939;28;20063;-72
2023/06/30 07:37:41;;;;;;;1.80;0.80;;;;;;;37.27;20.47;101550.81;5052161;28;20028;-73
2023/06/30 07:40:07;;;;;;;1.90;0.80;;;;;;;36.83;20.56;101549.38;5078821;28;20081;-72
2023/06/30 07:42:33;;;;;;;1.23;0.68;;;;;;;35.80;21.87;101552.41;5072246;28;20084;-73
2023/06/30 07:44:59;;;;;;;1.27;0.70;;;;;;;36.39;21.41;101540.69;5072777;28;20047;-72
2023/06/30 07:47:24;;;;;;;1.73;0.68;;;;;;;36.53;20.40;101545.44;5089461;28;20030;-72
2023/06/30 07:49:50;;;;;;;4.28;0.80;;;;;;;37.16;21.91;101545.75;5056335;28;20024;-72
2023/06/30 07:52:15;;;;;;;1.05;0.65;;;;;;;37.21;19.94;101540.63;5090819;28;20084;-73
2023/06/30 07:54:43;;;;;;;0.52;0.52;;;;;;;36.10;21.23;101533.81;5094260;28;20467;-72
2023/06/30 07:57:08;;;;;;;1.48;0.68;;;;;;;35.43;21.33;101537.28;5073008;28;20064;-72
2023/06/30 07:59:35;;;;;;;0.90;0.70;;;;;;;35.36;20.45;101534.38;5081030;28;20103;-72
2023/06/30 08:02:01;;;;;;;2.03;0.77;;;;;;;35.18;21.04;101537.13;5094324;28;20024;-72
2023/06/30 08:04:26;;;;;;;4.07;0.77;;;;;;;35.29;21.89;101533.28;5093174;28;20086;-72
2023/06/30 08:06:51;;;;;;;1.75;0.68;;;;;;;35.83;20.46;101530.34;5092313;28;20064;-72
2023/06/30 08:09:17;;;;;;;1.73;0.80;;;;;;;36.10;21.33;101525.66;5074085;28;20019;-72
2023/06/30 08:11:42;;;;;;;2.67;0.77;;;;;;;34.76;22.93;101533.28;5055790;28;20070;-73
2023/06/30 08:14:08;;;;;;;1.52;0.80;;;;;;;34.95;21.40;101537.69;5055766;28;20036;-72
2023/06/30 08:16:33;;;;;;;1.40;0.90;;;;;;;32.13;25.25;101531.31;5071749;28;20484;-72
2023/06/30 08:18:59;;;;;;;0.85;0.73;;;;;;;32.41;26.11;101528.84;5093718;28;20039;-73
2023/06/30 08:21:25;;;;;;;0.98;0.70;;;;;;;32.20;26.03;101531.66;5093731;28;20024;-71
2023/06/30 08:23:50;;;;;;;3.08;0.90;;;;;;;32.31;26.55;101527.97;5075781;28;20392;-72
2023/06/30 08:26:16;;;;;;;5.07;1.17;;;;;;;32.40;25.14;101534.41;5086073;28;20028;-72
2023/06/30 08:28:41;;;;;;;1.85;1.10;;;;;;;32.03;25.82;101530.47;5054501;28;20036;-72
2023/06/30 08:31:06;;;;;;;3.35;0.98;;;;;;;32.41;25.33;101534.25;5073814;28;20031;-73
2023/06/30 08:33:32;;;;;;;2.55;0.90;;;;;;;33.26;24.08;101520.94;5072826;28;20028;-73
2023/06/30 08:35:58;;;;;;;1.88;1.00;;;;;;;31.84;24.87;101520.47;5055752;28;20043;-72
2023/06/30 08:38:24;;;;;;;1.13;0.75;;;;;;;33.45;23.47;101511.00;5072488;28;20020;-72
2023/06/30 08:40:49;;;;;;;2.05;0.63;;;;;;;32.19;24.72;101518.28;5073048;28;20042;-73
2023/06/30 08:43:15;;;;;;;0.85;0.65;;;;;;;31.03;25.83;101509.59;5054985;28;20024;-72
2023/06/30 08:45:43;;;;;;;5.25;0.88;;;;;;;32.00;25.40;101508.25;5055423;28;20408;-72
2023/06/30 08:48:09;;;;;;;2.85;1.20;;;;;;;31.79;25.14;101510.09;5056743;28;20411;-72
2023/06/30 08:50:35;;;;;;;5.22;1.30;;;;;;;32.66;25.22;101504.91;5055255;28;20020;-72
2023/06/30 08:53:01;;;;;;;5.07;1.60;;;;;;;33.89;23.94;101494.94;5054948;28;20494;-72
2023/06/30 08:55:27;;;;;;;2.05;0.80;;;;;;;35.23;20.91;101496.75;5054665;28;20043;-72
2023/06/30 08:57:57;;;;;;;1.65;0.70;;;;;;;33.90;22.01;101485.81;5066182;28;20032;-72
2023/06/30 09:00:26;;;;;;;0.70;0.65;;;;;;;33.01;23.85;101491.75;5060133;28;20043;-72
2023/06/30 09:02:53;;;;;;;6.47;1.20;;;;;;;32.55;24.30;101495.09;5092521;28;20502;-72
2023/06/30 09:05:24;;;;;;;4.15;1.20;;;;;;;33.53;24.22;101484.00;5093418;28;20089;-73
2023/06/30 09:07:55;;;;;;;2.05;1.42;;;;;;;33.17;23.75;101489.28;5054673;28;20059;-72
2023/06/30 09:10:23;;;;;;;1.25;0.80;;;;;;;33.81;23.70;101479.47;5054514;28;20480;-72
2023/06/30 09:12:51;;;;;;;1.55;0.98;;;;;;;35.96;21.42;101487.22;5055031;28;20028;-73
2023/06/30 09:15:19;;;;;;;1.98;1.00;;;;;;;36.75;21.53;101485.88;5064530;28;20040;-72
2023/06/30 09:17:45;;;;;;;2.28;1.10;;;;;;;35.11;22.63;101487.19;5053934;28;20487;-72
2023/06/30 09:20:12;;;;;;;2.58;0.82;;;;;;;35.39;23.33;101484.28;5072397;28;20029;-72
2023/06/30 09:22:40;;;;;;;1.20;0.80;;;;;;;34.99;21.91;101478.47;5072845;28;20058;-72
2023/06/30 09:25:07;;;;;;;2.30;0.82;;;;;;;32.96;24.47;101492.19;5073539;28;20060;-72
2023/06/30 09:27:35;;;;;;;2.83;0.90;;;;;;;33.78;24.43;101473.50;5075258;28;20025;-72
2023/06/30 09:30:01;;;;;;;1.77;1.13;;;;;;;32.98;24.81;101476.66;5061664;28;20024;-73
2023/06/30 09:32:31;;;;;;;1.90;0.80;;;;;;;31.26;26.69;101473.31;5079373;28;20039;-72
2023/06/30 09:35:12;;;;;;;3.35;0.95;;;;;;;33.99;23.55;101463.22;5059046;28;20039;-72
2023/06/30 09:37:50;;;;;;;1.55;0.85;;;;;;;32.08;25.69;101478.69;5071067;28;20380;-72
2023/06/30 09:40:24;;;;;;;6.25;1.10;;;;;;;33.10;24.82;101470.06;5066704;28;20055;-71
2023/06/30 09:42:53;;;;;;;2.10;1.00;;;;;;;33.72;24.50;101474.94;5072103;28;20036;-73
2023/06/30 09:45:19;;;;;;;5.25;1.02;;;;;;;32.46;25.36;101477.84;5053709;28;20553;-72
2023/06/30 09:47:51;;;;;;;2.00;1.10;;;;;;;33.36;24.89;101463.13;5054837;28;20028;-72
2023/06/30 09:50:21;;;;;;;2.28;1.02;;;;;;;32.95;24.93;101482.38;5054252;28;20057;-72
2023/06/30 09:52:46;;;;;;;1.90;0.85;;;;;;;35.03;23.17;101463.53;5059935;28;20035;-73
2023/06/30 09:55:17;;;;;;;1.90;0.75;;;;;;;36.16;22.00;101465.13;5071743;28;20032;-72
2023/06/30 09:57:43;;;;;;;1.83;1.10;;;;;;;36.29;21.25;101460.03;5086525;28;20047;-73
2023/06/30 10:00:14;;;;;;;1.15;0.80;;;;;;;36.66;21.33;101455.94;5071797;28;20034;-72
2023/06/30 10:02:40;;;;;;;1.08;0.85;;;;;;;38.06;18.87;101450.94;5054032;28;20032;-72
2023/06/30 10:05:09;;;;;;;1.58;0.85;;;;;;;35.15;20.64;101455.97;5053025;28;20059;-73
2023/06/30 10:07:35;;;;;;;3.42;0.80;;;;;;;35.22;20.55;101446.16;5070900;28;20492;-72
2023/06/30 10:10:01;;;;;;;1.23;0.70;;;;;;;36.28;20.50;101457.50;5053388;28;20040;-72
2023/06/30 10:12:28;;;;;;;3.10;1.08;;;;;;;35.02;21.22;101450.13;5053904;28;20028;-72
2023/06/30 10:14:54;;;;;;;1.40;0.80;;;;;;;31.63;25.10;101453.88;5053018;28;20028;-73
2023/06/30 10:17:20;;;;;;;2.13;0.85;;;;;;;34.79;23.31;101450.66;5071898;28;20111;-72
2023/06/30 10:19:46;;;;;;;7.72;0.90;;;;;;;34.37;22.58;101448.66;5053833;28;20444;-73
2023/06/30 10:22:12;;;;;;;3.10;0.90;;;;;;;33.97;22.15;101446.25;5052659;28;20107;-67
2023/06/30 10:24:41;;;;;;;0.95;0.80;;;;;;;31.33;25.40;101446.63;5052612;28;20024;-67
2023/06/30 10:27:09;;;;;;;3.72;0.80;;;;;;;31.03;26.83;101451.06;5051203;28;20020;-66
2023/06/30 10:29:35;;;;;;;3.30;1.00;;;;;;;33.11;24.51;101442.00;5051951;28;20024;-67
2023/06/30 10:32:02;;;;;;;3.05;0.85;;;;;;;32.74;24.74;101445.53;5069323;28;20036;-68
2023/06/30 10:34:29;;;;;;;2.22;1.00;;;;;;;32.01;25.54;101445.09;5057082;28;20031;-67
2023/06/30 10:36:54;;;;;;;2.15;0.95;;;;;;;34.11;24.51;101436.69;5066074;28;20032;-67
2023/06/30 10:39:20;;;;;;;2.92;1.13;;;;;;;34.04;24.21;101429.38;5089421;28;20039;-67
2023/06/30 10:41:48;;;;;;;2.80;0.95;;;;;;;33.63;24.36;101427.06;5070386;28;20032;-67
2023/06/30 10:44:14;;;;;;;2.78;1.15;;;;;;;32.22;25.87;101432.34;5071234;28;20038;-67
2023/06/30 10:46:49;;;;;;;1.08;0.90;;;;;;;31.96;25.71;101427.47;5090325;28;20034;-67
2023/06/30 10:49:39;;;;;;;3.00;1.00;;;;;;;31.99;26.41;101430.91;5082828;28;20115;-67
2023/06/30 10:52:09;;;;;;;6.05;1.33;;;;;;;30.38;27.79;101434.13;5051020;28;20602;-67
2023/06/30 10:54:42;;;;;;;1.95;1.00;;;;;;;32.34;25.85;101429.47;5052173;28;20077;-67
2023/06/30 10:57:08;;;;;;;2.97;1.42;;;;;;;32.90;25.00;101422.41;5054342;28;20464;-67
2023/06/30 10:59:42;;;;;;;3.30;1.40;;;;;;;33.65;23.53;101414.22;5052613;28;20016;-67
2023/06/30 11:02:12;;;;;;;2.15;1.20;;;;;;;34.92;21.84;101418.50;5050620;28;20054;-67
2023/06/30 11:04:39;;;;;;;1.20;1.10;;;;;;;33.26;23.93;101420.72;5088156;28;20066;-67
2023/06/30 11:07:10;;;;;;;1.67;1.10;;;;;;;35.64;22.56;101412.69;5052498;28;20033;-67
2023/06/30 11:09:50;;;;;;;1.33;1.15;;;;;;;33.85;23.38;101414.94;5068423;28;20097;-67
2023/06/30 11:12:26;;;;;;;3.95;0.82;;;;;;;32.68;24.79;101415.47;5075983;28;20082;-68
2023/06/30 11:14:58;;;;;;;2.10;1.23;;;;;;;33.24;23.74;101411.88;5070237;28;20032;-67
2023/06/30 11:17:48;;;;;;;1.45;0.95;;;;;;;32.34;24.45;101414.09;5077890;28;20052;-66
2023/06/30 11:20:14;;;;;;;1.80;1.20;;;;;;;33.79;23.42;101407.44;5057234;28;20036;-67
2023/06/30 11:22:40;;;;;;;0.93;0.90;;;;;;;32.41;24.32;101414.38;5062013;28;20032;-67